Arden Hills, Minnesota
Current Conditions -  °F | °C
As of 6:45 PM on Wednesday 22 Oct 2014 (Local Time) from KANE Reporting Station
Overcast Overcast  
Wind Chill: 59°   Ceiling: 15000
Heat Index: 59°   Visibility: 10mi
Dew Point: 43°   Wind: 18mph
Humidity: 55%   Direction: 150°SSE
Pressure: 30.03"   Gusts: 26mph
Location:  45.0848°N, 93.136°W
Report Text: KANE 222345Z 15016G23KT 10SM SCT080 OVC150 15/06 A3003
Loading
Personal Weather Stations






























Interactive Weather Map
Tropical Storm Tracking
New forecast layout! Learn more

10-Day Weather Forecast

Advertisements
Track Severe Weather on mobile